Time;durP1;ratioP1;P1;durP2;ratioP2;P2;SDS_P1;SDS_P2;PMS_P1;PMS_P2;Temp;Humidity;BMP_temperature;BMP_pressure;BME280_temperature;BME280_humidity;BME280_pressure;Samples;Min_cycle;Max_cycle;Signal;HPM_P1;HPM_P2
2024/01/05 00:01:36;;;;;;;11.82;5.07;;;;;;;;;;5103380;28;20071;-75
2024/01/05 00:04:02;;;;;;;10.65;4.55;;;;;;;;;;5103681;28;20051;-75
2024/01/05 00:06:29;;;;;;;9.57;4.68;;;;;;;;;;5102969;28;20089;-78
2024/01/05 00:08:56;;;;;;;8.50;4.18;;;;;;;;;;5102647;28;20082;-76
2024/01/05 00:11:23;;;;;;;9.38;4.40;;;;;;;;;;5102442;28;20056;-75
2024/01/05 00:13:50;;;;;;;8.73;4.45;;;;;;;;;;5102514;28;20048;-76
2024/01/05 00:16:21;;;;;;;16.77;4.68;;;;;;;;;;5102226;28;20044;-73
2024/01/05 00:18:49;;;;;;;11.00;4.50;;;;;;;;;;5102060;28;20122;-72
2024/01/05 00:21:24;;;;;;;12.15;4.40;;;;;;;;;;5102400;28;20060;-76
2024/01/05 00:23:52;;;;;;;8.98;4.50;;;;;;;;;;5084375;28;20046;-73
2024/01/05 00:26:19;;;;;;;9.88;4.35;;;;;;;;;;5102419;28;20230;-75
2024/01/05 00:28:47;;;;;;;7.97;3.72;;;;;;;;;;5101663;28;20209;-75
2024/01/05 00:31:15;;;;;;;9.80;4.05;;;;;;;;;;5102525;28;20048;-73
2024/01/05 00:33:43;;;;;;;10.23;4.63;;;;;;;;;;5101739;28;20082;-74
2024/01/05 00:36:11;;;;;;;11.23;4.20;;;;;;;;;;5102545;28;20046;-76
2024/01/05 00:38:38;;;;;;;9.48;4.25;;;;;;;;;;5101925;28;20058;-76
2024/01/05 00:41:05;;;;;;;7.30;3.95;;;;;;;;;;5101881;28;20080;-75
2024/01/05 00:43:32;;;;;;;9.40;4.18;;;;;;;;;;5101847;28;20044;-74
2024/01/05 00:45:58;;;;;;;10.43;4.65;;;;;;;;;;5102035;28;20072;-76
2024/01/05 00:48:25;;;;;;;9.38;4.82;;;;;;;;;;5102625;28;20091;-73
2024/01/05 00:50:52;;;;;;;12.80;4.97;;;;;;;;;;5102416;28;20044;-74
2024/01/05 00:53:19;;;;;;;11.32;4.72;;;;;;;;;;5102775;28;20051;-73
2024/01/05 00:55:45;;;;;;;9.70;4.53;;;;;;;;;;5101988;28;20093;-73
2024/01/05 00:58:12;;;;;;;12.68;4.80;;;;;;;;;;5101952;28;20048;-75
2024/01/05 01:00:38;;;;;;;8.52;4.38;;;;;;;;;;5100689;28;20123;-75
2024/01/05 01:03:05;;;;;;;12.43;5.03;;;;;;;;;;5101259;28;20055;-74
2024/01/05 01:05:32;;;;;;;11.10;4.72;;;;;;;;;;5116870;28;20365;-74
2024/01/05 01:08:00;;;;;;;6.22;3.35;;;;;;;;;;5121964;28;20049;-73
2024/01/05 01:10:26;;;;;;;11.70;3.80;;;;;;;;;;5121548;28;20043;-72
2024/01/05 01:12:53;;;;;;;8.48;3.78;;;;;;;;;;5121987;28;20048;-75
2024/01/05 01:15:20;;;;;;;6.38;3.35;;;;;;;;;;5121137;28;20316;-75
2024/01/05 01:17:47;;;;;;;7.78;3.58;;;;;;;;;;5120803;28;20094;-74
2024/01/05 01:20:14;;;;;;;6.90;3.13;;;;;;;;;;5120688;28;20048;-72
2024/01/05 01:22:41;;;;;;;8.27;3.03;;;;;;;;;;5121003;28;20054;-73
2024/01/05 01:25:08;;;;;;;8.50;3.25;;;;;;;;;;5121092;28;20066;-73
2024/01/05 01:27:34;;;;;;;6.45;2.60;;;;;;;;;;5121352;28;20047;-77
2024/01/05 01:30:01;;;;;;;6.25;3.20;;;;;;;;;;5120781;28;20056;-79
2024/01/05 01:32:28;;;;;;;6.40;2.88;;;;;;;;;;5121173;28;20043;-79
2024/01/05 01:34:55;;;;;;;7.30;3.13;;;;;;;;;;5120469;28;20328;-80
2024/01/05 01:37:22;;;;;;;9.05;3.15;;;;;;;;;;5120264;28;20231;-74
2024/01/05 01:39:48;;;;;;;7.80;3.30;;;;;;;;;;5120625;28;20181;-74
2024/01/05 01:42:15;;;;;;;5.90;2.78;;;;;;;;;;5120533;28;20047;-77
2024/01/05 01:44:42;;;;;;;8.30;3.50;;;;;;;;;;5103136;28;20107;-74
2024/01/05 01:47:09;;;;;;;8.23;2.92;;;;;;;;;;5118544;28;20212;-73
2024/01/05 01:49:35;;;;;;;6.78;3.08;;;;;;;;;;5121324;28;20044;-73
2024/01/05 01:52:02;;;;;;;6.85;3.00;;;;;;;;;;5121649;28;20043;-75
2024/01/05 01:54:32;;;;;;;5.28;2.53;;;;;;;;;;5120478;28;20048;-73
2024/01/05 01:57:02;;;;;;;6.25;2.92;;;;;;;;;;5121432;28;20082;-73
2024/01/05 01:59:29;;;;;;;5.80;2.75;;;;;;;;;;5101837;28;20035;-73
2024/01/05 02:01:57;;;;;;;6.00;2.88;;;;;;;;;;5121131;28;20110;-72
2024/01/05 02:04:25;;;;;;;5.93;2.83;;;;;;;;;;5101102;28;20043;-73
2024/01/05 02:06:54;;;;;;;8.40;3.35;;;;;;;;;;5100235;28;20048;-72
2024/01/05 02:09:21;;;;;;;7.07;3.08;;;;;;;;;;5100022;28;20137;-73
2024/01/05 02:11:48;;;;;;;10.43;3.28;;;;;;;;;;5099555;28;20440;-76
2024/01/05 02:14:15;;;;;;;7.68;3.88;;;;;;;;;;5081713;28;20040;-73
2024/01/05 02:16:43;;;;;;;7.18;3.28;;;;;;;;;;5099865;28;20063;-75
2024/01/05 02:19:10;;;;;;;8.38;3.25;;;;;;;;;;5100382;28;20054;-73
2024/01/05 02:21:45;;;;;;;9.85;3.40;;;;;;;;;;5100576;28;20062;-73
2024/01/05 02:24:12;;;;;;;7.28;3.33;;;;;;;;;;5100514;28;20048;-73
2024/01/05 02:26:39;;;;;;;7.93;3.25;;;;;;;;;;5082730;28;20055;-76
2024/01/05 02:29:06;;;;;;;7.15;3.17;;;;;;;;;;5099858;28;20567;-74
2024/01/05 02:31:33;;;;;;;7.70;3.33;;;;;;;;;;5099966;28;20518;-73
2024/01/05 02:33:59;;;;;;;8.57;3.53;;;;;;;;;;5100208;28;20052;-73
2024/01/05 02:36:26;;;;;;;8.10;3.13;;;;;;;;;;5100199;28;20044;-73
2024/01/05 02:38:53;;;;;;;9.63;3.83;;;;;;;;;;5099578;28;20332;-73
2024/01/05 02:41:20;;;;;;;8.75;3.28;;;;;;;;;;5098807;28;20269;-75
2024/01/05 02:43:46;;;;;;;9.63;3.80;;;;;;;;;;5099729;28;20043;-73
2024/01/05 02:46:13;;;;;;;11.77;4.35;;;;;;;;;;5099419;28;20044;-74
2024/01/05 02:48:40;;;;;;;8.18;3.65;;;;;;;;;;5099935;28;20048;-72
2024/01/05 02:51:07;;;;;;;9.52;4.00;;;;;;;;;;5100144;28;20111;-78
2024/01/05 02:53:34;;;;;;;7.20;3.88;;;;;;;;;;5099804;28;20050;-72
2024/01/05 02:56:00;;;;;;;8.55;4.40;;;;;;;;;;5100247;28;20111;-74
2024/01/05 02:58:27;;;;;;;8.23;4.22;;;;;;;;;;5099486;28;20044;-74
2024/01/05 03:00:54;;;;;;;8.57;3.95;;;;;;;;;;5099830;28;20044;-73
2024/01/05 03:03:20;;;;;;;5.80;3.60;;;;;;;;;;5099646;28;20328;-73
2024/01/05 03:05:47;;;;;;;9.07;3.70;;;;;;;;;;5113084;28;20044;-73
2024/01/05 03:08:14;;;;;;;8.65;3.78;;;;;;;;;;5121112;28;20044;-76
2024/01/05 03:10:41;;;;;;;8.77;3.90;;;;;;;;;;5122051;28;20050;-74
2024/01/05 03:13:08;;;;;;;12.23;4.03;;;;;;;;;;5107234;28;20078;-73
2024/01/05 03:15:34;;;;;;;7.55;3.85;;;;;;;;;;5125031;28;20111;-75
2024/01/05 03:18:02;;;;;;;14.30;4.32;;;;;;;;;;5125019;28;20074;-73
2024/01/05 03:20:29;;;;;;;9.30;4.43;;;;;;;;;;5123933;28;20071;-72
2024/01/05 03:22:55;;;;;;;8.73;3.72;;;;;;;;;;5105379;28;20059;-73
2024/01/05 03:25:22;;;;;;;9.73;3.90;;;;;;;;;;5123033;28;20054;-77
2024/01/05 03:27:48;;;;;;;9.02;3.85;;;;;;;;;;5123358;28;20110;-73
2024/01/05 03:30:15;;;;;;;6.95;3.67;;;;;;;;;;5123119;28;20047;-73
2024/01/05 03:32:42;;;;;;;6.22;3.40;;;;;;;;;;5115977;28;20100;-73
2024/01/05 03:35:09;;;;;;;9.18;3.33;;;;;;;;;;5102707;28;20044;-73
2024/01/05 03:37:36;;;;;;;10.50;3.95;;;;;;;;;;5103057;28;20052;-74
2024/01/05 03:40:03;;;;;;;11.63;3.42;;;;;;;;;;5102587;28;20103;-73
2024/01/05 03:42:29;;;;;;;6.13;3.22;;;;;;;;;;5102547;28;20321;-73
2024/01/05 03:44:56;;;;;;;7.53;3.40;;;;;;;;;;5102051;28;20044;-73
2024/01/05 03:47:23;;;;;;;5.75;3.17;;;;;;;;;;5085149;28;20043;-73
2024/01/05 03:49:50;;;;;;;7.13;3.80;;;;;;;;;;5084529;28;20054;-73
2024/01/05 03:52:17;;;;;;;6.30;3.15;;;;;;;;;;5092992;28;20372;-72
2024/01/05 03:54:43;;;;;;;5.95;3.50;;;;;;;;;;5092310;28;20044;-74
2024/01/05 03:57:10;;;;;;;8.15;3.13;;;;;;;;;;5092042;28;20044;-75
2024/01/05 03:59:37;;;;;;;9.85;3.38;;;;;;;;;;5092162;28;20051;-77
2024/01/05 04:02:03;;;;;;;8.63;3.55;;;;;;;;;;5091648;28;20040;-74
2024/01/05 04:04:30;;;;;;;7.70;3.28;;;;;;;;;;5092859;28;20044;-76
2024/01/05 04:06:57;;;;;;;9.05;3.83;;;;;;;;;;5112192;28;20126;-73
2024/01/05 04:09:23;;;;;;;6.45;2.85;;;;;;;;;;5112162;28;20522;-72
2024/01/05 04:11:51;;;;;;;7.28;3.10;;;;;;;;;;5112422;28;20722;-75
2024/01/05 04:14:18;;;;;;;5.25;3.10;;;;;;;;;;5112159;28;20499;-75
2024/01/05 04:16:45;;;;;;;6.47;3.08;;;;;;;;;;5112268;28;20044;-73
2024/01/05 04:19:12;;;;;;;7.93;3.65;;;;;;;;;;5112154;28;20126;-73
2024/01/05 04:21:39;;;;;;;8.10;3.60;;;;;;;;;;5111127;28;20055;-72
2024/01/05 04:24:06;;;;;;;7.00;3.53;;;;;;;;;;5112140;28;20097;-72
2024/01/05 04:26:33;;;;;;;5.43;3.35;;;;;;;;;;5112102;28;20047;-73
2024/01/05 04:29:00;;;;;;;6.15;3.08;;;;;;;;;;5112249;28;20203;-73
2024/01/05 04:31:26;;;;;;;6.28;3.40;;;;;;;;;;5111580;28;20177;-74
2024/01/05 04:33:54;;;;;;;8.80;3.38;;;;;;;;;;5111666;28;20620;-72
2024/01/05 04:36:21;;;;;;;7.13;3.17;;;;;;;;;;5111500;28;20131;-74
2024/01/05 04:38:48;;;;;;;6.25;3.35;;;;;;;;;;5111696;28;20089;-73
2024/01/05 04:41:16;;;;;;;6.40;3.13;;;;;;;;;;5111501;28;20549;-73
2024/01/05 04:43:44;;;;;;;6.68;3.33;;;;;;;;;;5111990;28;20050;-75
2024/01/05 04:46:10;;;;;;;7.25;3.67;;;;;;;;;;5112224;28;20044;-72
2024/01/05 04:48:37;;;;;;;6.45;3.40;;;;;;;;;;5111549;28;20606;-72
2024/01/05 04:51:04;;;;;;;6.55;3.72;;;;;;;;;;5111320;28;20046;-73
2024/01/05 04:53:31;;;;;;;10.48;3.63;;;;;;;;;;5111692;28;20050;-74
2024/01/05 04:55:58;;;;;;;7.47;3.35;;;;;;;;;;5111565;28;20040;-73
2024/01/05 04:58:25;;;;;;;7.45;3.55;;;;;;;;;;5111245;28;20136;-73
2024/01/05 05:00:51;;;;;;;9.43;3.67;;;;;;;;;;5111007;28;20100;-77
2024/01/05 05:03:18;;;;;;;8.75;3.63;;;;;;;;;;5111279;28;20043;-75
2024/01/05 05:05:45;;;;;;;9.27;4.03;;;;;;;;;;5100411;28;20044;-75
2024/01/05 05:08:13;;;;;;;7.40;3.45;;;;;;;;;;5091049;28;20055;-76
2024/01/05 05:10:40;;;;;;;9.15;3.53;;;;;;;;;;5090475;28;20048;-74
2024/01/05 05:13:07;;;;;;;9.90;4.07;;;;;;;;;;5090904;28;20048;-74
2024/01/05 05:15:34;;;;;;;9.88;3.92;;;;;;;;;;5090615;28;20127;-72
2024/01/05 05:18:00;;;;;;;7.45;3.60;;;;;;;;;;5090778;28;20040;-72
2024/01/05 05:20:27;;;;;;;7.85;3.78;;;;;;;;;;5090205;28;20048;-73
2024/01/05 05:22:54;;;;;;;7.05;3.42;;;;;;;;;;5090319;28;20040;-74
2024/01/05 05:25:22;;;;;;;6.13;3.00;;;;;;;;;;5090880;28;20048;-78
2024/01/05 05:27:49;;;;;;;5.45;2.83;;;;;;;;;;5072120;28;20063;-74
2024/01/05 05:30:17;;;;;;;9.55;3.58;;;;;;;;;;5090559;28;20082;-76
2024/01/05 05:32:43;;;;;;;10.75;3.83;;;;;;;;;;5089728;28;20127;-74
2024/01/05 05:35:10;;;;;;;10.00;3.85;;;;;;;;;;5090143;28;20423;-79
2024/01/05 05:37:37;;;;;;;7.55;3.30;;;;;;;;;;5090310;28;20048;-80
2024/01/05 05:40:04;;;;;;;6.13;3.05;;;;;;;;;;5089945;28;20500;-77
2024/01/05 05:42:31;;;;;;;6.28;2.90;;;;;;;;;;5090428;28;20048;-73
2024/01/05 05:44:57;;;;;;;5.57;2.80;;;;;;;;;;5089991;28;20577;-74
2024/01/05 05:47:24;;;;;;;6.95;3.35;;;;;;;;;;5089941;28;20131;-75
2024/01/05 05:49:51;;;;;;;7.30;3.28;;;;;;;;;;5071881;28;20500;-73
2024/01/05 05:52:17;;;;;;;5.80;2.90;;;;;;;;;;5089904;28;20044;-72
2024/01/05 05:54:44;;;;;;;5.50;2.88;;;;;;;;;;5089792;28;20407;-73
2024/01/05 05:57:12;;;;;;;5.28;2.70;;;;;;;;;;5089706;28;20091;-73
2024/01/05 05:59:38;;;;;;;7.18;3.13;;;;;;;;;;5089771;28;20052;-74
2024/01/05 06:02:05;;;;;;;6.00;2.92;;;;;;;;;;5089934;28;20040;-74
2024/01/05 06:04:32;;;;;;;8.43;3.38;;;;;;;;;;5090072;28;20048;-74
2024/01/05 06:06:59;;;;;;;6.78;2.88;;;;;;;;;;5110296;28;20092;-75
2024/01/05 06:09:26;;;;;;;4.82;2.83;;;;;;;;;;5110122;28;20048;-72
2024/01/05 06:11:53;;;;;;;6.68;3.03;;;;;;;;;;5110114;28;20066;-73
2024/01/05 06:14:19;;;;;;;6.88;3.05;;;;;;;;;;5110136;28;20040;-74
2024/01/05 06:16:46;;;;;;;5.80;2.67;;;;;;;;;;5109891;28;20406;-73
2024/01/05 06:19:13;;;;;;;5.88;2.65;;;;;;;;;;5109790;28;20498;-74
2024/01/05 06:21:40;;;;;;;6.00;3.08;;;;;;;;;;5109381;28;20072;-73
2024/01/05 06:24:07;;;;;;;6.22;3.00;;;;;;;;;;5109824;28;20505;-78
2024/01/05 06:26:34;;;;;;;5.18;2.80;;;;;;;;;;5109899;28;20499;-73
2024/01/05 06:29:00;;;;;;;5.47;2.67;;;;;;;;;;5091619;28;20040;-73
2024/01/05 06:31:27;;;;;;;6.13;3.20;;;;;;;;;;5109942;28;20062;-77
2024/01/05 06:33:54;;;;;;;9.23;3.33;;;;;;;;;;5109811;28;20089;-74
2024/01/05 06:36:23;;;;;;;6.38;3.08;;;;;;;;;;5110037;28;20138;-72
2024/01/05 06:38:50;;;;;;;7.00;3.05;;;;;;;;;;5109396;28;20075;-73
2024/01/05 06:41:16;;;;;;;9.43;3.10;;;;;;;;;;5109797;28;20047;-73
2024/01/05 06:43:43;;;;;;;5.28;2.75;;;;;;;;;;5109421;28;20515;-74
2024/01/05 06:46:09;;;;;;;7.43;2.92;;;;;;;;;;5113965;28;20047;-72
2024/01/05 06:48:36;;;;;;;7.38;2.83;;;;;;;;;;5096031;28;20039;-74
2024/01/05 06:51:03;;;;;;;8.30;2.97;;;;;;;;;;5114035;28;20093;-73
2024/01/05 06:53:30;;;;;;;6.63;2.55;;;;;;;;;;5113802;28;20086;-74
2024/01/05 06:55:57;;;;;;;5.72;2.78;;;;;;;;;;5113543;28;20468;-75
2024/01/05 06:58:24;;;;;;;6.50;2.28;;;;;;;;;;5113505;28;20040;-72
2024/01/05 07:00:50;;;;;;;5.53;2.63;;;;;;;;;;5114035;28;20050;-74
2024/01/05 07:03:17;;;;;;;4.32;2.25;;;;;;;;;;5113301;28;20039;-73
2024/01/05 07:05:44;;;;;;;4.97;2.60;;;;;;;;;;5103848;28;20044;-72
2024/01/05 07:08:11;;;;;;;6.57;2.78;;;;;;;;;;5093358;28;20142;-75
2024/01/05 07:10:38;;;;;;;6.20;2.47;;;;;;;;;;5093511;28;20138;-76
2024/01/05 07:13:06;;;;;;;4.65;2.53;;;;;;;;;;5092965;28;20048;-73
2024/01/05 07:15:33;;;;;;;6.80;2.58;;;;;;;;;;5075224;28;20132;-76
2024/01/05 07:18:00;;;;;;;6.70;2.72;;;;;;;;;;5092932;28;20055;-73
2024/01/05 07:20:27;;;;;;;7.47;2.70;;;;;;;;;;5092954;28;20060;-73
2024/01/05 07:22:54;;;;;;;5.00;2.50;;;;;;;;;;5092755;28;20048;-72
2024/01/05 07:25:21;;;;;;;7.47;2.78;;;;;;;;;;5092729;28;20045;-73
2024/01/05 07:27:47;;;;;;;5.28;2.75;;;;;;;;;;5092846;28;20044;-74
2024/01/05 07:30:14;;;;;;;7.65;3.10;;;;;;;;;;5093032;28;20048;-76
2024/01/05 07:32:41;;;;;;;6.50;2.70;;;;;;;;;;5092215;28;20048;-73
2024/01/05 07:35:10;;;;;;;8.13;3.45;;;;;;;;;;5092763;28;20082;-72
2024/01/05 07:37:38;;;;;;;7.95;2.97;;;;;;;;;;5092466;28;20562;-75
2024/01/05 07:40:05;;;;;;;8.30;3.40;;;;;;;;;;5092406;28;20564;-73
2024/01/05 07:42:32;;;;;;;7.40;3.22;;;;;;;;;;5092679;28;20062;-74
2024/01/05 07:44:59;;;;;;;5.60;2.83;;;;;;;;;;5074425;28;20040;-74
2024/01/05 07:47:26;;;;;;;5.28;3.10;;;;;;;;;;5092633;28;20040;-74
2024/01/05 07:49:53;;;;;;;6.25;2.60;;;;;;;;;;5092453;28;20139;-73
2024/01/05 07:52:19;;;;;;;4.90;2.50;;;;;;;;;;5092310;28;20051;-74
2024/01/05 07:54:46;;;;;;;4.20;2.17;;;;;;;;;;5092080;28;20523;-73
2024/01/05 07:57:14;;;;;;;5.20;2.17;;;;;;;;;;5091821;28;20063;-74
2024/01/05 07:59:41;;;;;;;4.18;2.15;;;;;;;;;;5091981;28;20550;-74
2024/01/05 08:02:07;;;;;;;3.95;2.00;;;;;;;;;;5092440;28;20052;-74
2024/01/05 08:04:36;;;;;;;3.17;1.80;;;;;;;;;;5092391;28;20071;-74
2024/01/05 08:07:02;;;;;;;3.53;1.92;;;;;;;;;;5054172;28;20062;-73
2024/01/05 08:09:29;;;;;;;5.57;2.20;;;;;;;;;;5071804;28;20086;-73
2024/01/05 08:11:56;;;;;;;4.15;1.70;;;;;;;;;;5071876;28;20087;-74
2024/01/05 08:14:23;;;;;;;5.63;2.60;;;;;;;;;;5071898;28;20041;-73
2024/01/05 08:16:50;;;;;;;3.03;1.70;;;;;;;;;;5072007;28;20045;-74
2024/01/05 08:19:20;;;;;;;3.13;1.52;;;;;;;;;;5071805;28;20051;-76
2024/01/05 08:21:47;;;;;;;2.65;1.55;;;;;;;;;;5071428;28;20056;-76
2024/01/05 08:24:14;;;;;;;2.08;1.17;;;;;;;;;;5071082;28;20067;-72
2024/01/05 08:26:43;;;;;;;2.40;1.00;;;;;;;;;;5071282;28;20084;-73
2024/01/05 08:29:10;;;;;;;2.63;1.10;;;;;;;;;;5071207;28;20131;-73
2024/01/05 08:31:36;;;;;;;1.30;0.85;;;;;;;;;;5071458;28;20045;-76
2024/01/05 08:34:03;;;;;;;3.15;1.00;;;;;;;;;;5071103;28;20174;-74
2024/01/05 08:36:30;;;;;;;1.38;0.90;;;;;;;;;;5071182;28;20044;-74
2024/01/05 08:38:56;;;;;;;2.20;0.98;;;;;;;;;;5071182;28;20044;-72
2024/01/05 08:41:23;;;;;;;11.20;0.93;;;;;;;;;;5071318;28;20044;-72
2024/01/05 08:43:51;;;;;;;1.67;0.68;;;;;;;;;;5071244;28;20052;-74
2024/01/05 08:46:18;;;;;;;1.83;0.90;;;;;;;;;;5070951;28;20041;-73
2024/01/05 08:48:45;;;;;;;1.88;0.80;;;;;;;;;;5070864;28;20049;-73
2024/01/05 08:51:12;;;;;;;2.22;0.80;;;;;;;;;;5071063;28;20053;-75
2024/01/05 08:53:39;;;;;;;1.60;0.75;;;;;;;;;;5070908;28;20048;-74
2024/01/05 08:56:07;;;;;;;1.38;0.65;;;;;;;;;;5070990;28;20044;-73
2024/01/05 08:58:34;;;;;;;1.35;0.60;;;;;;;;;;5070825;28;20049;-75
2024/01/05 09:01:01;;;;;;;8.93;1.45;;;;;;;;;;5070646;28;20044;-75
2024/01/05 09:03:28;;;;;;;0.98;0.57;;;;;;;;;;5070697;28;20051;-74
2024/01/05 09:05:55;;;;;;;1.42;0.80;;;;;;;;;;5086222;28;20066;-77
2024/01/05 09:08:22;;;;;;;1.95;0.60;;;;;;;;;;5085931;28;20067;-76
2024/01/05 09:10:49;;;;;;;3.13;1.00;;;;;;;;;;5072751;28;20595;-74
2024/01/05 09:13:15;;;;;;;1.20;0.68;;;;;;;;;;5090636;28;20434;-73
2024/01/05 09:15:43;;;;;;;3.85;0.60;;;;;;;;;;5090629;28;20491;-78
2024/01/05 09:18:10;;;;;;;1.75;0.68;;;;;;;;;;5072570;28;20044;-75
2024/01/05 09:20:37;;;;;;;2.45;1.00;;;;;;;;;;5088838;28;20055;-75
2024/01/05 09:23:06;;;;;;;1.63;0.60;;;;;;;;;;5090255;28;20051;-75
2024/01/05 09:25:32;;;;;;;1.73;0.70;;;;;;;;;;5090176;28;20047;-74
2024/01/05 09:28:06;;;;;;;1.70;0.98;;;;;;;;;;5088728;28;20044;-73
2024/01/05 09:30:33;;;;;;;5.75;1.30;;;;;;;;;;5088533;28;20040;-75
2024/01/05 09:33:02;;;;;;;1.65;0.98;;;;;;;;;;5088780;28;20415;-76
2024/01/05 09:35:29;;;;;;;1.92;0.77;;;;;;;;;;5087708;28;20134;-76
2024/01/05 09:37:55;;;;;;;2.42;0.90;;;;;;;;;;5088740;28;20533;-77
2024/01/05 09:40:23;;;;;;;2.65;0.93;;;;;;;;;;5089056;28;20135;-77
2024/01/05 09:42:50;;;;;;;1.42;0.88;;;;;;;;;;5089667;28;20379;-75
2024/01/05 09:45:21;;;;;;;1.17;0.70;;;;;;;;;;5090462;28;20127;-76
2024/01/05 09:47:49;;;;;;;2.20;1.00;;;;;;;;;;5074388;28;20484;-70
2024/01/05 09:50:17;;;;;;;1.52;0.70;;;;;;;;;;5092616;28;20503;-72
2024/01/05 09:52:45;;;;;;;2.22;0.95;;;;;;;;;;5079073;28;20044;-74
2024/01/05 09:55:11;;;;;;;0.75;0.50;;;;;;;;;;5098312;28;20085;-78
2024/01/05 09:57:40;;;;;;;3.35;0.80;;;;;;;;;;5092935;28;20051;-73
2024/01/05 10:00:14;;;;;;;2.30;0.77;;;;;;;;;;5092556;28;20412;-73
2024/01/05 10:02:47;;;;;;;1.10;0.63;;;;;;;;;;5090081;28;20151;-75
2024/01/05 10:05:14;;;;;;;1.85;0.57;;;;;;;;;;5097022;28;20044;-73
2024/01/05 10:07:42;;;;;;;2.50;0.95;;;;;;;;;;5112017;28;20127;-80
2024/01/05 10:10:11;;;;;;;1.58;0.80;;;;;;;;;;5110059;28;20069;-74
2024/01/05 10:12:38;;;;;;;1.60;0.80;;;;;;;;;;5111871;28;20058;-72
2024/01/05 10:15:06;;;;;;;1.70;0.57;;;;;;;;;;5112611;28;20093;-73
2024/01/05 10:17:34;;;;;;;0.88;0.38;;;;;;;;;;5110457;28;20047;-74
2024/01/05 10:20:14;;;;;;;1.50;0.47;;;;;;;;;;5110280;28;20100;-75
2024/01/05 10:22:43;;;;;;;0.95;0.50;;;;;;;;;;5110081;28;20074;-73
2024/01/05 10:25:21;;;;;;;0.55;0.30;;;;;;;;;;5109522;28;20048;-72
2024/01/05 10:27:49;;;;;;;4.20;0.57;;;;;;;;;;5110070;28;20094;-75
2024/01/05 10:30:25;;;;;;;1.75;0.55;;;;;;;;;;5109803;28;20048;-77
2024/01/05 10:33:06;;;;;;;0.93;0.52;;;;;;;;;;5109954;28;20039;-73
2024/01/05 10:35:36;;;;;;;0.77;0.57;;;;;;;;;;5109935;28;20094;-77
2024/01/05 10:38:14;;;;;;;0.93;0.50;;;;;;;;;;5111759;28;20047;-79
2024/01/05 10:40:41;;;;;;;1.00;0.55;;;;;;;;;;5109950;28;20051;-77
2024/01/05 10:43:14;;;;;;;1.55;0.47;;;;;;;;;;5109704;28;20413;-77
2024/01/05 10:45:42;;;;;;;0.88;0.40;;;;;;;;;;5109543;28;20074;-76
2024/01/05 10:48:13;;;;;;;1.23;0.60;;;;;;;;;;5111631;28;20662;-78
2024/01/05 10:50:44;;;;;;;1.17;0.30;;;;;;;;;;5109734;28;20040;-77
2024/01/05 10:53:12;;;;;;;0.47;0.30;;;;;;;;;;5110019;28;20075;-76
2024/01/05 10:55:40;;;;;;;0.82;0.50;;;;;;;;;;5109488;28;20040;-77
2024/01/05 10:58:09;;;;;;;1.77;0.50;;;;;;;;;;5109695;28;20141;-77
2024/01/05 11:00:36;;;;;;;0.93;0.40;;;;;;;;;;5109765;28;20074;-75
2024/01/05 11:03:12;;;;;;;0.88;0.68;;;;;;;;;;5109722;28;20418;-75
2024/01/05 11:05:43;;;;;;;0.47;0.38;;;;;;;;;;5101540;28;20044;-77
2024/01/05 11:08:39;;;;;;;2.45;0.52;;;;;;;;;;5089222;28;20048;-76
2024/01/05 11:11:19;;;;;;;2.35;0.60;;;;;;;;;;5058775;28;20089;-75
2024/01/05 11:14:06;;;;;;;1.35;0.73;;;;;;;;;;5093049;28;20058;-80
2024/01/05 11:16:58;;;;;;;1.23;0.52;;;;;;;;;;5089363;28;20458;-78
2024/01/05 11:19:46;;;;;;;2.42;0.70;;;;;;;;;;5065947;28;20044;-80
2024/01/05 11:22:19;;;;;;;2.28;1.05;;;;;;;;;;5065082;28;20160;-76
2024/01/05 11:24:48;;;;;;;2.08;1.00;;;;;;;;;;5066174;28;20127;-74
2024/01/05 11:27:30;;;;;;;0.75;0.68;;;;;;;;;;5081045;28;20132;-77
2024/01/05 11:29:57;;;;;;;1.42;0.73;;;;;;;;;;5084724;28;20059;-75
2024/01/05 11:32:33;;;;;;;0.90;0.60;;;;;;;;;;5082065;28;20052;-77
2024/01/05 11:35:23;;;;;;;2.30;0.60;;;;;;;;;;5052858;28;20037;-75
2024/01/05 11:37:51;;;;;;;1.42;0.60;;;;;;;;;;5053573;28;20056;-77
2024/01/05 11:40:28;;;;;;;2.63;0.70;;;;;;;;;;5085889;28;20419;-76
2024/01/05 11:42:57;;;;;;;0.75;0.40;;;;;;;;;;5074037;28;20048;-75
2024/01/05 11:45:45;;;;;;;2.38;0.60;;;;;;;;;;5092082;28;20151;-76
2024/01/05 11:48:35;;;;;;;0.93;0.45;;;;;;;;;;5081637;28;20049;-75
2024/01/05 11:51:07;;;;;;;1.25;0.73;;;;;;;;;;5061073;28;20084;-77
2024/01/05 11:53:34;;;;;;;1.23;0.60;;;;;;;;;;5070601;28;20061;-76
2024/01/05 11:56:10;;;;;;;0.70;0.47;;;;;;;;;;5052380;28;20067;-78
2024/01/05 11:58:43;;;;;;;1.83;0.82;;;;;;;;;;5074072;28;20463;-76
2024/01/05 12:01:12;;;;;;;1.85;0.70;;;;;;;;;;5072085;28;20512;-78
2024/01/05 12:03:40;;;;;;;0.68;0.50;;;;;;;;;;5072276;28;20067;-74
2024/01/05 12:06:12;;;;;;;2.00;0.65;;;;;;;;;;5089754;28;20123;-77
2024/01/05 12:08:40;;;;;;;1.77;0.70;;;;;;;;;;5112469;28;20045;-76
2024/01/05 12:11:09;;;;;;;1.83;0.68;;;;;;;;;;5111893;28;20047;-75
2024/01/05 12:13:38;;;;;;;1.38;0.80;;;;;;;;;;5111339;28;20051;-77
2024/01/05 12:16:06;;;;;;;2.05;0.55;;;;;;;;;;5111917;28;20718;-74
2024/01/05 12:18:43;;;;;;;0.90;0.50;;;;;;;;;;5112227;28;20039;-76
2024/01/05 12:21:16;;;;;;;1.40;0.60;;;;;;;;;;5112035;28;20058;-76
2024/01/05 12:23:53;;;;;;;1.50;0.30;;;;;;;;;;5112132;28;20043;-77
2024/01/05 12:26:22;;;;;;;0.68;0.40;;;;;;;;;;5112365;28;20556;-77
2024/01/05 12:28:50;;;;;;;3.15;0.50;;;;;;;;;;5112395;28;20070;-74
2024/01/05 12:31:17;;;;;;;0.57;0.45;;;;;;;;;;5112180;28;20044;-77
2024/01/05 12:33:45;;;;;;;0.95;0.43;;;;;;;;;;5112144;28;20039;-81
2024/01/05 12:36:27;;;;;;;1.30;0.65;;;;;;;;;;5112046;28;20070;-74
2024/01/05 12:39:10;;;;;;;0.77;0.38;;;;;;;;;;5112807;28;20487;-75
2024/01/05 12:41:41;;;;;;;1.13;0.47;;;;;;;;;;5112393;28;20655;-80
2024/01/05 12:44:10;;;;;;;1.52;0.50;;;;;;;;;;5112747;28;20077;-75
2024/01/05 12:46:42;;;;;;;1.20;0.52;;;;;;;;;;5112629;28;20138;-74
2024/01/05 12:49:21;;;;;;;1.40;0.55;;;;;;;;;;5093006;28;20130;-73
2024/01/05 12:51:50;;;;;;;2.20;0.63;;;;;;;;;;5110092;28;20479;-76
2024/01/05 12:54:17;;;;;;;1.70;0.70;;;;;;;;;;5110430;28;20071;-85
2024/01/05 12:56:48;;;;;;;2.00;0.60;;;;;;;;;;5110458;28;20400;-79
2024/01/05 12:59:21;;;;;;;0.63;0.35;;;;;;;;;;5111093;28;20139;-74
2024/01/05 13:01:58;;;;;;;2.10;0.60;;;;;;;;;;5092712;28;20048;-75
2024/01/05 13:04:34;;;;;;;0.70;0.50;;;;;;;;;;5113157;28;20162;-74
2024/01/05 13:07:09;;;;;;;2.53;0.70;;;;;;;;;;5076685;28;20105;-74
2024/01/05 13:09:36;;;;;;;1.15;0.50;;;;;;;;;;5091031;28;20068;-74
2024/01/05 13:12:04;;;;;;;1.33;0.60;;;;;;;;;;5090036;28;20113;-73
2024/01/05 13:14:31;;;;;;;0.85;0.43;;;;;;;;;;5091122;28;20087;-75
2024/01/05 13:16:58;;;;;;;1.65;0.60;;;;;;;;;;5090863;28;20048;-74
2024/01/05 13:19:24;;;;;;;1.63;0.60;;;;;;;;;;5090797;28;20044;-76
2024/01/05 13:21:51;;;;;;;1.25;0.47;;;;;;;;;;5090609;28;20083;-74
2024/01/05 13:24:20;;;;;;;0.98;0.60;;;;;;;;;;5090768;28;20408;-72
2024/01/05 13:26:47;;;;;;;0.43;0.40;;;;;;;;;;5090621;28;20040;-73
2024/01/05 13:29:13;;;;;;;1.17;0.50;;;;;;;;;;5090653;28;20051;-75
2024/01/05 13:31:40;;;;;;;0.50;0.40;;;;;;;;;;5090750;28;20531;-79
2024/01/05 13:34:07;;;;;;;1.63;0.95;;;;;;;;;;5091024;28;20051;-82
2024/01/05 13:36:34;;;;;;;2.47;0.65;;;;;;;;;;5072332;28;20474;-82
2024/01/05 13:39:01;;;;;;;0.30;0.30;;;;;;;;;;5090826;28;20044;-83
2024/01/05 13:41:28;;;;;;;1.95;0.30;;;;;;;;;;5090708;28;20052;-79
2024/01/05 13:43:55;;;;;;;1.20;0.68;;;;;;;;;;5090482;28;20555;-72
2024/01/05 13:46:21;;;;;;;1.45;0.80;;;;;;;;;;5090106;28;20048;-77
2024/01/05 13:48:48;;;;;;;0.40;0.30;;;;;;;;;;5090297;28;20056;-73
2024/01/05 13:51:15;;;;;;;1.30;0.65;;;;;;;;;;5090554;28;20058;-79
2024/01/05 13:53:42;;;;;;;1.27;0.38;;;;;;;;;;5071777;28;20101;-73
2024/01/05 13:56:08;;;;;;;0.70;0.50;;;;;;;;;;5090445;28;20052;-73
2024/01/05 13:58:36;;;;;;;0.85;0.50;;;;;;;;;;5090430;28;20412;-73
2024/01/05 14:01:03;;;;;;;1.90;0.50;;;;;;;;;;5089898;28;20075;-73
2024/01/05 14:03:31;;;;;;;1.13;0.50;;;;;;;;;;5090348;28;20054;-73
2024/01/05 14:06:03;;;;;;;1.35;0.70;;;;;;;;;;5079512;28;20047;-72
2024/01/05 14:08:31;;;;;;;0.60;0.50;;;;;;;;;;5110644;28;20050;-73
2024/01/05 14:10:58;;;;;;;0.98;0.45;;;;;;;;;;5110552;28;20056;-73
2024/01/05 14:13:25;;;;;;;2.45;0.77;;;;;;;;;;5092373;28;20127;-75
2024/01/05 14:15:51;;;;;;;1.60;0.85;;;;;;;;;;5110409;28;20050;-74
2024/01/05 14:18:18;;;;;;;2.33;0.80;;;;;;;;;;5110043;28;20083;-73
2024/01/05 14:20:45;;;;;;;1.10;0.55;;;;;;;;;;5109513;28;20507;-76
2024/01/05 14:23:12;;;;;;;1.10;0.55;;;;;;;;;;5110105;28;20671;-75
2024/01/05 14:25:39;;;;;;;2.22;1.00;;;;;;;;;;5109813;28;20093;-72
2024/01/05 14:28:06;;;;;;;1.17;0.60;;;;;;;;;;5110324;28;20048;-74
2024/01/05 14:30:32;;;;;;;4.40;0.80;;;;;;;;;;5110247;28;20475;-74
2024/01/05 14:33:00;;;;;;;1.50;0.70;;;;;;;;;;5110422;28;20040;-72
2024/01/05 14:35:28;;;;;;;0.90;0.57;;;;;;;;;;5109733;28;20572;-74
2024/01/05 14:37:55;;;;;;;1.52;0.60;;;;;;;;;;5109914;28;20051;-74
2024/01/05 14:40:22;;;;;;;1.85;0.77;;;;;;;;;;5109736;28;20062;-74
2024/01/05 14:42:48;;;;;;;1.08;0.60;;;;;;;;;;5109796;28;20043;-73
2024/01/05 14:45:15;;;;;;;0.85;0.47;;;;;;;;;;5110532;28;20044;-73
2024/01/05 14:47:42;;;;;;;2.45;0.60;;;;;;;;;;5109643;28;20563;-73
2024/01/05 14:50:09;;;;;;;1.60;0.65;;;;;;;;;;5110211;28;20071;-73